Avon, Colorado
Current Conditions -  °F | °C
As of 4:57 PM on Saturday 25 Oct 2014 (Local Time) from KEGE Reporting Station
Clear Clear  
Wind Chill: 72°   Ceiling: Unl
Heat Index: 72°   Visibility: 10mi
Dew Point: 25°   Wind: 12mph
Humidity: 17%   Direction: 270°W
Pressure: 30.18"   Gusts: NA
Location:  39.63°N, 106.52°W
Report Text: KEGE 252257Z 27010KT 10SM SKC 22/M04 A3018
Loading
Personal Weather Stations






























Interactive Weather Map New forecast layout! Learn more

10-Day Weather Forecast

Advertisements
Track Severe Weather on mobile